Framingham, MA

5:10 AM EDT on September 02, 2014 (GMT -0400)
East Milton | Change Station
CLOSE
Current Station
Airport
Location: East Milton,
Elevation: 630 ft
Nearby Weather Stations

Elev 630 ft 42.21 °N, 71.11 °W | Updated 16 minutes ago

Partly Cloudy
Partly Cloudy
70 °F
Feels Like 70 °F
N
9
Wind Variable Wind from SSW
Gusts 4 mph

Today
High -- | Low -- °F
--% Chance of Precip.
Yesterday
High -- | Low -- °F
Precip. -- in
6:11 AM 7:18 PM
Waxing Crescent, 49% visible
Pressure 29.92 in
Visibility -9999.0 miles
Clouds
Dew Point 70 °F
Humidity 100%
Rainfall 0.00 in
Snow Depth Not available.
UV Not available.
Pollen 6.30 out of 12
Air Quality Not available.
Flu Activity Not available.
METAR KMQE 020854Z AUTO 20008KT 21/21 A2990 RMK AO1 SLP130 T02110211 56012

More Conditions Fewer Conditions

Pressure 29.92 in
Visibility -9999.0 miles
Clouds
Dew Point 70 °F
Humidity 100%
Rainfall 0.00 in
Snow Depth Not available.
UV Not available.
Pollen 6.30 out of 12
Air Quality Not available.
Flu Activity Not available.
METAR KMQE 020854Z AUTO 20008KT 21/21 A2990 RMK AO1 SLP130 T02110211 56012

More Conditions Fewer Conditions

10-Day Weather Forecast

Almanac

Astronomy

Sep. 02, 2014 Rise Set
Actual Time 6:11 AM EDT 7:18 PM EDT
Civil Twilight 5:43 AM EDT 7:46 PM EDT
Nautical Twilight 5:08 AM EDT 8:21 PM EDT
Astronomical Twilight 4:32 AM EDT 8:57 PM EDT
Moon 2:01 PM EDT No Moon Set
Length of Visible Light 14h 03m
Length of Day
13h 06m
Tomorrow will be 2m 45s shorter.
Waxing Crescent, 49% of the Moon is Illuminated
Today
Waxing Crescent
Sep 2
First Quarter
Sep 8
Full
Sep 15
Last Quarter
Sep 24
New

Today's Extremes

State Highs State Lows

Community

WunderPhotos

Upload Photos

1,749,587 photos uploaded!

WunderBlogs® & News

Nearby

Air Quality

  Air Quality AQ Index Pollutant
Tuesday Good
PM2.5
Tuesday Good
OZONE

Snow Depth

Station Depth Elevation
No new snow has been reported.

Earthquake Activity

City Distance Mag. Time & Date
No recent earthquake activity has been reported nearby.
Minimum magnitude displayed is 2.5.

Coastal Water Temperatures

Place Temperature
Boston, MA 66.9 °F
Providence, RI 73.9 °F
Fall River, MA 75.0 °F
Conimicut Light, RI 73.9 °F

Nearby Weather Stations